Time,TemperatureF,DewpointF,PressureIn,WindDirection,WindDirectionDegrees,WindSpeedMPH,WindSpeedGustMPH,Humidity,HourlyPrecipIn,Conditions,Clouds,dailyrainin,SoftwareType,DateUTC
2013-07-13 00:01:00,72.2,66.4,29.98,North,5,2.0,2.0,82,0.00,,,0.00,WeatherCatV1.15B25,2013-07-13 05:01:00,
2013-07-13 00:06:00,71.8,66.0,29.98,North,5,0.0,0.0,82,0.00,,,0.00,WeatherCatV1.15B25,2013-07-13 05:06:00,
2013-07-13 00:11:00,71.6,66.2,29.98,North,5,2.0,2.0,83,0.00,,,0.00,WeatherCatV1.15B25,2013-07-13 05:11:00,
2013-07-13 00:16:00,71.4,66.0,29.98,North,5,1.0,1.0,83,0.00,,,0.00,WeatherCatV1.15B25,2013-07-13 05:16:00,
2013-07-13 00:21:00,71.3,65.9,29.98,North,5,3.0,3.0,83,0.00,,,0.00,WeatherCatV1.15B25,2013-07-13 05:21:00,
2013-07-13 00:26:00,71.5,66.1,29.98,North,5,0.0,1.0,83,0.00,,,0.00,WeatherCatV1.15B25,2013-07-13 05:26:00,
2013-07-13 00:31:00,71.7,65.9,29.98,North,5,2.0,2.0,82,0.00,,,0.00,WeatherCatV1.15B25,2013-07-13 05:31:00,
2013-07-13 00:36:00,71.7,65.9,29.98,North,5,0.0,3.0,82,0.00,,,0.00,WeatherCatV1.15B25,2013-07-13 05:36:00,
2013-07-13 00:41:00,71.7,65.9,29.98,North,5,0.0,1.0,82,0.00,,,0.00,WeatherCatV1.15B25,2013-07-13 05:41:00,
2013-07-13 00:46:00,71.6,65.8,29.98,North,5,0.0,2.0,82,0.00,,,0.00,WeatherCatV1.15B25,2013-07-13 05:46:00,
2013-07-13 00:51:00,71.5,65.7,29.99,North,5,0.0,3.0,82,0.00,,,0.00,WeatherCatV1.15B25,2013-07-13 05:51:00,
2013-07-13 00:56:00,71.6,66.2,29.99,North,5,2.0,5.0,83,0.00,,,0.00,WeatherCatV1.15B25,2013-07-13 05:56:00,
2013-07-13 01:01:00,71.6,65.8,29.99,North,5,2.0,3.0,82,0.00,,,0.00,WeatherCatV1.15B25,2013-07-13 06:01:00,
2013-07-13 01:06:00,71.6,66.2,29.99,North,5,3.0,4.0,83,0.00,,,0.00,WeatherCatV1.15B25,2013-07-13 06:06:00,
2013-07-13 01:11:00,71.4,66.0,29.99,North,5,1.0,3.0,83,0.00,,,0.00,WeatherCatV1.15B25,2013-07-13 06:11:00,
2013-07-13 01:16:00,71.4,66.0,29.99,North,5,2.0,4.0,83,0.00,,,0.00,WeatherCatV1.15B25,2013-07-13 06:16:00,
2013-07-13 01:21:00,71.3,65.9,29.99,North,5,1.0,4.0,83,0.00,,,0.00,WeatherCatV1.15B25,2013-07-13 06:21:00,
2013-07-13 01:26:00,71.3,65.9,29.98,ENE,59,4.0,5.0,83,0.00,,,0.00,WeatherCatV1.15B25,2013-07-13 06:26:00,
2013-07-13 01:31:00,71.3,65.9,29.98,NE,55,1.0,3.0,83,0.00,,,0.00,WeatherCatV1.15B25,2013-07-13 06:31:00,
2013-07-13 01:36:00,71.2,65.8,29.98,ENE,58,0.0,2.0,83,0.00,,,0.00,WeatherCatV1.15B25,2013-07-13 06:36:00,
2013-07-13 01:41:00,71.1,65.7,29.98,ENE,58,2.0,2.0,83,0.00,,,0.00,WeatherCatV1.15B25,2013-07-13 06:41:00,
2013-07-13 01:46:00,70.7,65.3,29.98,ENE,58,2.0,4.0,83,0.00,,,0.00,WeatherCatV1.15B25,2013-07-13 06:46:00,
2013-07-13 01:51:00,70.3,65.2,29.98,ENE,58,2.0,2.0,84,0.00,,,0.00,WeatherCatV1.15B25,2013-07-13 06:51:00,
2013-07-13 01:56:00,69.8,65.1,29.98,ENE,58,1.0,1.0,85,0.00,,,0.00,WeatherCatV1.15B25,2013-07-13 06:56:00,
2013-07-13 02:01:00,69.6,65.2,29.98,ENE,58,0.0,1.0,86,0.00,,,0.00,WeatherCatV1.15B25,2013-07-13 07:01:00,
2013-07-13 02:06:00,69.5,65.1,29.98,ENE,58,3.0,3.0,86,0.00,,,0.00,WeatherCatV1.15B25,2013-07-13 07:06:00,
2013-07-13 02:11:00,69.3,64.9,29.98,ENE,58,2.0,3.0,86,0.00,,,0.00,WeatherCatV1.15B25,2013-07-13 07:11:00,
2013-07-13 02:16:00,69.0,64.6,29.98,ENE,58,1.0,2.0,86,0.00,,,0.00,WeatherCatV1.15B25,2013-07-13 07:16:00,
2013-07-13 02:21:00,68.7,64.7,29.98,ENE,58,2.0,2.0,87,0.00,,,0.00,WeatherCatV1.15B25,2013-07-13 07:21:00,
2013-07-13 02:26:00,68.4,64.4,29.98,ENE,58,2.0,2.0,87,0.00,,,0.00,WeatherCatV1.15B25,2013-07-13 07:26:00,
2013-07-13 02:31:00,68.2,64.5,29.98,ENE,58,2.0,2.0,88,0.00,,,0.00,WeatherCatV1.15B25,2013-07-13 07:31:00,
2013-07-13 02:36:00,68.0,64.3,29.98,ENE,58,0.0,0.0,88,0.00,,,0.00,WeatherCatV1.15B25,2013-07-13 07:36:00,
2013-07-13 02:41:00,67.9,64.2,29.98,ENE,58,0.0,0.0,88,0.00,,,0.00,WeatherCatV1.15B25,2013-07-13 07:41:00,
2013-07-13 02:46:00,67.9,64.2,29.98,ENE,58,1.0,1.0,88,0.00,,,0.00,WeatherCatV1.15B25,2013-07-13 07:46:00,
2013-07-13 02:51:00,67.9,64.2,29.98,ENE,58,2.0,3.0,88,0.00,,,0.00,WeatherCatV1.15B25,2013-07-13 07:51:00,
2013-07-13 02:56:00,67.8,64.1,29.98,ENE,58,1.0,2.0,88,0.00,,,0.00,WeatherCatV1.15B25,2013-07-13 07:56:00,
2013-07-13 03:01:00,67.7,64.0,29.98,ENE,58,1.0,3.0,88,0.00,,,0.00,WeatherCatV1.15B25,2013-07-13 08:01:00,
2013-07-13 03:06:00,67.5,63.8,29.98,ENE,58,1.0,1.0,88,0.00,,,0.00,WeatherCatV1.15B25,2013-07-13 08:06:00,
2013-07-13 03:11:00,67.4,64.0,29.98,ENE,58,2.0,2.0,89,0.00,,,0.00,WeatherCatV1.15B25,2013-07-13 08:11:00,
2013-07-13 03:16:00,67.3,63.9,29.98,ENE,58,2.0,2.0,89,0.00,,,0.00,WeatherCatV1.15B25,2013-07-13 08:16:00,
2013-07-13 03:21:00,67.0,63.6,29.98,ENE,58,0.0,1.0,89,0.00,,,0.00,WeatherCatV1.15B25,2013-07-13 08:21:00,
2013-07-13 03:26:00,66.7,63.3,29.98,ENE,58,1.0,2.0,89,0.00,,,0.00,WeatherCatV1.15B25,2013-07-13 08:26:00,
2013-07-13 03:31:00,66.5,63.2,29.98,ENE,58,2.0,2.0,89,0.00,,,0.00,WeatherCatV1.15B25,2013-07-13 08:31:00,
2013-07-13 03:36:00,66.5,63.5,29.98,ENE,58,1.0,1.0,90,0.00,,,0.00,WeatherCatV1.15B25,2013-07-13 08:36:00,
2013-07-13 03:41:00,66.3,63.3,29.98,ENE,58,0.0,1.0,90,0.00,,,0.00,WeatherCatV1.15B25,2013-07-13 08:41:00,
2013-07-13 03:46:00,66.3,63.3,29.99,ENE,58,1.0,2.0,90,0.00,,,0.00,WeatherCatV1.15B25,2013-07-13 08:46:00,
2013-07-13 03:51:00,66.2,63.2,29.99,ENE,58,1.0,2.0,90,0.00,,,0.00,WeatherCatV1.15B25,2013-07-13 08:51:00,
2013-07-13 03:56:00,66.0,63.0,29.99,ENE,58,1.0,1.0,90,0.00,,,0.00,WeatherCatV1.15B25,2013-07-13 08:56:00,
2013-07-13 04:01:00,65.9,62.9,29.99,ENE,58,1.0,1.0,90,0.00,,,0.00,WeatherCatV1.15B25,2013-07-13 09:01:00,
2013-07-13 04:06:00,65.9,62.9,29.99,ENE,58,1.0,2.0,90,0.00,,,0.00,WeatherCatV1.15B25,2013-07-13 09:06:00,
2013-07-13 04:11:00,65.8,62.8,29.98,ENE,58,0.0,0.0,90,0.00,,,0.00,WeatherCatV1.15B25,2013-07-13 09:11:00,
2013-07-13 04:16:00,65.7,62.7,29.98,ENE,58,1.0,1.0,90,0.00,,,0.00,WeatherCatV1.15B25,2013-07-13 09:16:00,
2013-07-13 04:21:00,65.6,62.6,29.99,ENE,58,0.0,1.0,90,0.00,,,0.00,WeatherCatV1.15B25,2013-07-13 09:21:00,
2013-07-13 04:26:00,65.4,62.4,29.99,ENE,58,0.0,0.0,90,0.00,,,0.00,WeatherCatV1.15B25,2013-07-13 09:26:00,
2013-07-13 04:31:00,65.3,62.3,29.98,ENE,58,0.0,0.0,90,0.00,,,0.00,WeatherCatV1.15B25,2013-07-13 09:31:00,
2013-07-13 04:36:00,65.1,62.1,29.98,ENE,58,0.0,0.0,90,0.00,,,0.00,WeatherCatV1.15B25,2013-07-13 09:36:00,
2013-07-13 04:41:00,65.0,62.0,29.99,ENE,58,0.0,0.0,90,0.00,,,0.00,WeatherCatV1.15B25,2013-07-13 09:41:00,
2013-07-13 04:46:00,64.9,62.2,29.99,ENE,58,0.0,0.0,91,0.00,,,0.00,WeatherCatV1.15B25,2013-07-13 09:46:00,
2013-07-13 04:51:00,64.8,62.1,29.99,ENE,58,0.0,0.0,91,0.00,,,0.00,WeatherCatV1.15B25,2013-07-13 09:51:00,
2013-07-13 04:56:00,64.7,62.0,29.99,ENE,58,0.0,0.0,91,0.00,,,0.00,WeatherCatV1.15B25,2013-07-13 09:56:00,
2013-07-13 05:01:00,64.6,62.2,29.99,ENE,58,0.0,0.0,92,0.00,,,0.00,WeatherCatV1.15B25,2013-07-13 10:01:00,
2013-07-13 05:06:00,64.6,62.2,30.00,ENE,58,0.0,0.0,92,0.00,,,0.00,WeatherCatV1.15B25,2013-07-13 10:06:00,
2013-07-13 05:11:00,64.5,62.1,30.00,ENE,58,0.0,0.0,92,0.00,,,0.00,WeatherCatV1.15B25,2013-07-13 10:11:00,
2013-07-13 05:16:00,64.3,61.9,30.00,ENE,58,0.0,0.0,92,0.00,,,0.00,WeatherCatV1.15B25,2013-07-13 10:16:00,
2013-07-13 05:21:00,64.2,61.8,30.00,ENE,58,0.0,0.0,92,0.00,,,0.00,WeatherCatV1.15B25,2013-07-13 10:21:00,
2013-07-13 05:26:00,64.1,61.7,29.99,ENE,58,0.0,0.0,92,0.00,,,0.00,WeatherCatV1.15B25,2013-07-13 10:26:00,
2013-07-13 05:31:00,64.0,61.9,29.99,ENE,58,0.0,0.0,93,0.00,,,0.00,WeatherCatV1.15B25,2013-07-13 10:31:00,
2013-07-13 05:36:00,63.9,61.8,30.00,ENE,58,0.0,0.0,93,0.00,,,0.00,WeatherCatV1.15B25,2013-07-13 10:36:00,
2013-07-13 05:41:00,63.8,61.7,30.00,ENE,59,0.0,0.0,93,0.00,,,0.00,WeatherCatV1.15B25,2013-07-13 10:41:00,
2013-07-13 05:46:00,63.9,61.8,30.00,ENE,59,0.0,0.0,93,0.00,,,0.00,WeatherCatV1.15B25,2013-07-13 10:46:00,
2013-07-13 05:51:00,64.0,62.2,30.00,SSW,205,1.0,1.0,94,0.00,,,0.00,WeatherCatV1.15B25,2013-07-13 10:51:00,
2013-07-13 05:56:00,64.4,62.6,30.00,ENE,72,1.0,2.0,94,0.00,,,0.00,WeatherCatV1.15B25,2013-07-13 10:56:00,
2013-07-13 06:01:00,64.7,62.9,30.00,ENE,72,3.0,3.0,94,0.00,,,0.00,WeatherCatV1.15B25,2013-07-13 11:01:00,
2013-07-13 06:06:00,65.0,62.9,30.00,NE,40,2.0,4.0,93,0.00,,,0.00,WeatherCatV1.15B25,2013-07-13 11:06:00,
2013-07-13 06:11:00,65.2,63.1,30.00,NE,50,3.0,3.0,93,0.00,,,0.00,WeatherCatV1.15B25,2013-07-13 11:11:00,
2013-07-13 06:16:00,65.3,62.9,30.00,NE,50,3.0,5.0,92,0.00,,,0.00,WeatherCatV1.15B25,2013-07-13 11:16:00,
2013-07-13 06:21:00,65.4,63.0,30.00,NE,49,2.0,3.0,92,0.00,,,0.00,WeatherCatV1.15B25,2013-07-13 11:21:00,
2013-07-13 06:26:00,65.4,63.0,30.00,ESE,105,2.0,3.0,92,0.00,,,0.00,WeatherCatV1.15B25,2013-07-13 11:26:00,
2013-07-13 06:31:00,65.5,62.8,30.00,ESE,105,2.0,3.0,91,0.00,,,0.00,WeatherCatV1.15B25,2013-07-13 11:31:00,
2013-07-13 06:36:00,65.5,62.8,30.00,ESE,105,2.0,3.0,91,0.00,,,0.00,WeatherCatV1.15B25,2013-07-13 11:36:00,
2013-07-13 06:41:00,65.7,63.3,30.00,ESE,105,1.0,3.0,92,0.00,,,0.00,WeatherCatV1.15B25,2013-07-13 11:41:00,
2013-07-13 06:46:00,65.9,63.5,30.00,ESE,105,0.0,1.0,92,0.00,,,0.00,WeatherCatV1.15B25,2013-07-13 11:46:00,
2013-07-13 06:51:00,66.2,63.5,30.00,ESE,105,1.0,2.0,91,0.00,,,0.00,WeatherCatV1.15B25,2013-07-13 11:51:00,
2013-07-13 06:56:00,66.6,63.9,30.00,ENE,74,1.0,1.0,91,0.00,,,0.00,WeatherCatV1.15B25,2013-07-13 11:56:00,
2013-07-13 07:01:00,66.9,64.5,30.01,ENE,74,0.0,1.0,92,0.00,,,0.00,WeatherCatV1.15B25,2013-07-13 12:01:00,
2013-07-13 07:06:00,67.4,65.0,30.01,NW,311,0.0,0.0,92,0.00,,,0.00,WeatherCatV1.15B25,2013-07-13 12:06:00,
2013-07-13 07:11:00,67.6,65.2,30.01,WSW,255,1.0,1.0,92,0.00,,,0.00,WeatherCatV1.15B25,2013-07-13 12:11:00,
2013-07-13 07:16:00,67.9,65.2,30.01,SE,143,0.0,1.0,91,0.00,,,0.00,WeatherCatV1.15B25,2013-07-13 12:16:00,
2013-07-13 07:21:00,68.3,65.6,30.01,SE,143,0.0,0.0,91,0.00,,,0.00,WeatherCatV1.15B25,2013-07-13 12:21:00,
2013-07-13 07:26:00,68.8,65.7,30.01,South,189,1.0,3.0,90,0.00,,,0.00,WeatherCatV1.15B25,2013-07-13 12:26:00,
2013-07-13 07:31:00,69.0,65.3,30.01,South,182,2.0,3.0,88,0.00,,,0.00,WeatherCatV1.15B25,2013-07-13 12:31:00,
2013-07-13 07:36:00,69.3,65.6,30.01,ENE,60,3.0,5.0,88,0.00,,,0.00,WeatherCatV1.15B25,2013-07-13 12:36:00,
2013-07-13 07:41:00,69.6,65.6,30.01,ENE,60,5.0,5.0,87,0.00,,,0.00,WeatherCatV1.15B25,2013-07-13 12:41:00,
2013-07-13 07:46:00,69.7,65.0,30.01,NE,45,1.0,4.0,85,0.00,,,0.00,WeatherCatV1.15B25,2013-07-13 12:46:00,
2013-07-13 07:51:00,70.0,65.6,30.02,NE,40,3.0,3.0,86,0.00,,,0.00,WeatherCatV1.15B25,2013-07-13 12:51:00,
2013-07-13 07:56:00,70.3,65.9,30.02,NE,40,3.0,3.0,86,0.00,,,0.00,WeatherCatV1.15B25,2013-07-13 12:56:00,
2013-07-13 08:01:00,70.6,66.2,30.02,NE,34,1.0,3.0,86,0.00,,,0.00,WeatherCatV1.15B25,2013-07-13 13:01:00,
2013-07-13 08:06:00,70.8,66.1,30.02,North,0,2.0,3.0,85,0.00,,,0.00,WeatherCatV1.15B25,2013-07-13 13:06:00,
2013-07-13 08:11:00,71.0,65.9,30.03,NE,43,4.0,4.0,84,0.00,,,0.00,WeatherCatV1.15B25,2013-07-13 13:11:00,
2013-07-13 08:16:00,71.3,66.2,30.02,ENE,59,3.0,4.0,84,0.00,,,0.00,WeatherCatV1.15B25,2013-07-13 13:16:00,
2013-07-13 08:21:00,71.5,65.7,30.02,ENE,59,0.0,4.0,82,0.00,,,0.00,WeatherCatV1.15B25,2013-07-13 13:21:00,
2013-07-13 08:26:00,71.7,65.9,30.03,SE,133,0.0,2.0,82,0.00,,,0.00,WeatherCatV1.15B25,2013-07-13 13:26:00,
2013-07-13 08:31:00,72.2,66.7,30.02,NE,40,1.0,3.0,83,0.00,,,0.00,WeatherCatV1.15B25,2013-07-13 13:31:00,
2013-07-13 08:36:00,72.5,67.0,30.02,NNW,338,3.0,3.0,83,0.00,,,0.00,WeatherCatV1.15B25,2013-07-13 13:36:00,
2013-07-13 08:41:00,72.9,66.4,30.02,NE,34,3.0,5.0,80,0.00,,,0.00,WeatherCatV1.15B25,2013-07-13 13:41:00,
2013-07-13 08:46:00,73.1,66.6,30.02,NE,42,1.0,3.0,80,0.00,,,0.00,WeatherCatV1.15B25,2013-07-13 13:46:00,
2013-07-13 08:51:00,73.4,66.1,30.03,ENE,70,3.0,5.0,78,0.00,,,0.00,WeatherCatV1.15B25,2013-07-13 13:51:00,
2013-07-13 08:56:00,73.6,66.3,30.03,NE,38,2.0,4.0,78,0.00,,,0.00,WeatherCatV1.15B25,2013-07-13 13:56:00,
2013-07-13 09:01:00,74.0,66.3,30.03,NNE,20,4.0,5.0,77,0.00,,,0.00,WeatherCatV1.15B25,2013-07-13 14:01:00,
2013-07-13 09:06:00,74.0,65.6,30.03,NNE,21,5.0,5.0,75,0.00,,,0.00,WeatherCatV1.15B25,2013-07-13 14:06:00,
2013-07-13 09:11:00,74.1,66.0,30.02,NE,42,3.0,4.0,76,0.00,,,0.00,WeatherCatV1.15B25,2013-07-13 14:11:00,
2013-07-13 09:16:00,74.1,66.0,30.02,ENE,61,3.0,7.0,76,0.00,,,0.00,WeatherCatV1.15B25,2013-07-13 14:16:00,
2013-07-13 09:21:00,74.3,65.8,30.03,NE,40,3.0,5.0,75,0.00,,,0.00,WeatherCatV1.15B25,2013-07-13 14:21:00,
2013-07-13 09:26:00,74.5,66.0,30.02,NNW,346,2.0,4.0,75,0.00,,,0.00,WeatherCatV1.15B25,2013-07-13 14:26:00,
2013-07-13 09:31:00,74.7,65.8,30.03,East,88,3.0,4.0,74,0.00,,,0.00,WeatherCatV1.15B25,2013-07-13 14:31:00,
2013-07-13 09:36:00,74.8,66.7,30.03,ENE,64,3.0,4.0,76,0.00,,,0.00,WeatherCatV1.15B25,2013-07-13 14:36:00,
2013-07-13 09:41:00,74.8,65.9,30.02,ENE,61,2.0,5.0,74,0.00,,,0.00,WeatherCatV1.15B25,2013-07-13 14:41:00,
2013-07-13 09:46:00,74.9,65.6,30.03,ENE,59,7.0,7.0,73,0.00,,,0.00,WeatherCatV1.15B25,2013-07-13 14:46:00,
2013-07-13 09:51:00,75.0,65.7,30.03,NE,47,3.0,5.0,73,0.00,,,0.00,WeatherCatV1.15B25,2013-07-13 14:51:00,
2013-07-13 09:56:00,75.3,66.4,30.03,NNE,20,2.0,3.0,74,0.00,,,0.00,WeatherCatV1.15B25,2013-07-13 14:56:00,
2013-07-13 10:01:00,75.7,66.4,30.03,NE,53,4.0,5.0,73,0.00,,,0.00,WeatherCatV1.15B25,2013-07-13 15:01:00,
2013-07-13 10:06:00,75.9,66.2,30.03,NNE,25,3.0,4.0,72,0.00,,,0.00,WeatherCatV1.15B25,2013-07-13 15:06:00,
2013-07-13 10:11:00,76.2,67.7,30.03,East,94,5.0,5.0,75,0.00,,,0.00,WeatherCatV1.15B25,2013-07-13 15:11:00,
2013-07-13 10:16:00,76.6,66.1,30.03,ENE,69,7.0,8.0,70,0.00,,,0.00,WeatherCatV1.15B25,2013-07-13 15:16:00,
2013-07-13 10:21:00,77.1,67.8,30.03,WNW,289,2.0,3.0,73,0.00,,,0.00,WeatherCatV1.15B25,2013-07-13 15:21:00,
2013-07-13 10:26:00,77.5,66.9,30.03,NNE,29,5.0,7.0,70,0.00,,,0.00,WeatherCatV1.15B25,2013-07-13 15:26:00,
2013-07-13 10:31:00,77.6,68.2,30.03,NNE,32,2.0,5.0,73,0.00,,,0.00,WeatherCatV1.15B25,2013-07-13 15:31:00,
2013-07-13 10:36:00,77.8,67.2,30.03,North,9,5.0,5.0,70,0.00,,,0.00,WeatherCatV1.15B25,2013-07-13 15:36:00,
2013-07-13 10:41:00,77.8,65.9,30.03,NNE,16,6.0,8.0,67,0.00,,,0.00,WeatherCatV1.15B25,2013-07-13 15:41:00,
2013-07-13 10:46:00,77.7,66.3,30.03,NE,39,4.0,6.0,68,0.00,,,0.00,WeatherCatV1.15B25,2013-07-13 15:46:00,
2013-07-13 10:51:00,77.6,66.2,30.03,NNE,19,5.0,8.0,68,0.00,,,0.00,WeatherCatV1.15B25,2013-07-13 15:51:00,
2013-07-13 10:56:00,77.6,66.6,30.03,NNE,26,7.0,7.0,69,0.00,,,0.00,WeatherCatV1.15B25,2013-07-13 15:56:00,
2013-07-13 11:01:00,77.7,65.8,30.03,NNW,342,4.0,7.0,67,0.00,,,0.00,WeatherCatV1.15B25,2013-07-13 16:01:00,
2013-07-13 11:06:00,77.8,66.4,30.03,North,5,4.0,8.0,68,0.00,,,0.00,WeatherCatV1.15B25,2013-07-13 16:06:00,
2013-07-13 11:11:00,77.9,66.0,30.03,NNE,15,4.0,5.0,67,0.00,,,0.00,WeatherCatV1.15B25,2013-07-13 16:11:00,
2013-07-13 11:16:00,78.0,66.6,30.03,NNE,25,5.0,5.0,68,0.00,,,0.00,WeatherCatV1.15B25,2013-07-13 16:16:00,
2013-07-13 11:21:00,78.2,66.3,30.03,NNE,28,6.0,7.0,67,0.00,,,0.00,WeatherCatV1.15B25,2013-07-13 16:21:00,
2013-07-13 11:26:00,78.3,66.4,30.02,NE,52,3.0,6.0,67,0.00,,,0.00,WeatherCatV1.15B25,2013-07-13 16:26:00,
2013-07-13 11:31:00,78.5,65.7,30.03,NE,42,5.0,7.0,65,0.00,,,0.00,WeatherCatV1.15B25,2013-07-13 16:31:00,
2013-07-13 11:36:00,78.6,65.4,30.02,ENE,65,5.0,8.0,64,0.00,,,0.00,WeatherCatV1.15B25,2013-07-13 16:36:00,
2013-07-13 11:41:00,78.9,68.3,30.02,NNE,24,5.0,8.0,70,0.00,,,0.00,WeatherCatV1.15B25,2013-07-13 16:41:00,
2013-07-13 11:46:00,79.0,65.3,30.02,ENE,68,5.0,7.0,63,0.00,,,0.00,WeatherCatV1.15B25,2013-07-13 16:46:00,
2013-07-13 11:51:00,78.9,66.1,30.02,NNE,19,5.0,7.0,65,0.00,,,0.00,WeatherCatV1.15B25,2013-07-13 16:51:00,
2013-07-13 11:56:00,78.8,65.6,30.02,NE,55,3.0,7.0,64,0.00,,,0.00,WeatherCatV1.15B25,2013-07-13 16:56:00,
2013-07-13 12:01:00,78.7,66.4,30.02,NE,48,5.0,7.0,66,0.00,,,0.00,WeatherCatV1.15B25,2013-07-13 17:01:00,
2013-07-13 12:06:00,78.6,65.4,30.02,NE,55,1.0,7.0,64,0.00,,,0.00,WeatherCatV1.15B25,2013-07-13 17:06:00,
2013-07-13 12:11:00,78.6,64.0,30.02,NE,40,4.0,10.0,61,0.00,,,0.00,WeatherCatV1.15B25,2013-07-13 17:11:00,
2013-07-13 12:16:00,78.4,64.7,30.02,NNE,28,5.0,9.0,63,0.00,,,0.00,WeatherCatV1.15B25,2013-07-13 17:16:00,
2013-07-13 12:21:00,78.4,63.3,30.02,NNE,24,5.0,7.0,60,0.00,,,0.00,WeatherCatV1.15B25,2013-07-13 17:21:00,
2013-07-13 12:26:00,78.7,64.6,30.02,NE,44,3.0,6.0,62,0.00,,,0.00,WeatherCatV1.15B25,2013-07-13 17:26:00,
2013-07-13 12:31:00,78.9,65.7,30.02,NNE,20,4.0,5.0,64,0.00,,,0.00,WeatherCatV1.15B25,2013-07-13 17:31:00,
2013-07-13 12:36:00,79.0,65.3,30.02,NNE,15,4.0,4.0,63,0.00,,,0.00,WeatherCatV1.15B25,2013-07-13 17:36:00,
2013-07-13 12:41:00,79.0,63.9,30.02,NE,54,6.0,7.0,60,0.00,,,0.00,WeatherCatV1.15B25,2013-07-13 17:41:00,
2013-07-13 12:46:00,79.1,64.9,30.02,NNE,23,5.0,7.0,62,0.00,,,0.00,WeatherCatV1.15B25,2013-07-13 17:46:00,
2013-07-13 12:51:00,79.2,63.6,30.02,NE,35,3.0,6.0,59,0.00,,,0.00,WeatherCatV1.15B25,2013-07-13 17:51:00,
2013-07-13 12:56:00,79.6,65.4,30.02,NNE,15,3.0,7.0,62,0.00,,,0.00,WeatherCatV1.15B25,2013-07-13 17:56:00,
2013-07-13 13:01:00,79.7,63.6,30.02,ENE,67,4.0,7.0,58,0.00,,,0.00,WeatherCatV1.15B25,2013-07-13 18:01:00,
2013-07-13 13:06:00,79.9,64.3,30.01,NE,38,3.0,5.0,59,0.00,,,0.00,WeatherCatV1.15B25,2013-07-13 18:06:00,
2013-07-13 13:11:00,80.2,65.0,30.01,NE,52,3.0,8.0,60,0.00,,,0.00,WeatherCatV1.15B25,2013-07-13 18:11:00,
2013-07-13 13:16:00,80.2,66.4,30.01,NNE,20,4.0,6.0,63,0.00,,,0.00,WeatherCatV1.15B25,2013-07-13 18:16:00,
2013-07-13 13:21:00,80.0,67.2,30.01,NE,49,6.0,6.0,65,0.00,,,0.00,WeatherCatV1.15B25,2013-07-13 18:21:00,
2013-07-13 13:26:00,80.0,64.8,30.01,East,86,3.0,9.0,60,0.00,,,0.00,WeatherCatV1.15B25,2013-07-13 18:26:00,
2013-07-13 13:31:00,80.4,66.6,30.01,NNE,29,5.0,8.0,63,0.00,,,0.00,WeatherCatV1.15B25,2013-07-13 18:31:00,
2013-07-13 13:36:00,80.5,66.3,30.01,NNE,25,2.0,7.0,62,0.00,,,0.00,WeatherCatV1.15B25,2013-07-13 18:36:00,
2013-07-13 13:41:00,80.4,67.1,30.00,NNE,29,5.0,5.0,64,0.00,,,0.00,WeatherCatV1.15B25,2013-07-13 18:41:00,
2013-07-13 13:46:00,80.6,66.8,30.00,NNE,33,7.0,8.0,63,0.00,,,0.00,WeatherCatV1.15B25,2013-07-13 18:46:00,
2013-07-13 13:51:00,80.7,68.3,30.00,NNE,31,8.0,8.0,66,0.00,,,0.00,WeatherCatV1.15B25,2013-07-13 18:51:00,
2013-07-13 13:56:00,80.6,65.9,30.00,NNE,18,4.0,9.0,61,0.00,,,0.00,WeatherCatV1.15B25,2013-07-13 18:56:00,
2013-07-13 14:01:00,80.7,66.4,29.99,NNE,20,4.0,6.0,62,0.00,,,0.00,WeatherCatV1.15B25,2013-07-13 19:01:00,
2013-07-13 14:06:00,81.0,67.6,29.99,NNE,18,4.0,5.0,64,0.00,,,0.00,WeatherCatV1.15B25,2013-07-13 19:06:00,
2013-07-13 14:11:00,81.2,66.4,29.99,NE,54,6.0,7.0,61,0.00,,,0.00,WeatherCatV1.15B25,2013-07-13 19:11:00,
2013-07-13 14:16:00,81.4,66.2,29.99,NNE,30,4.0,5.0,60,0.00,,,0.00,WeatherCatV1.15B25,2013-07-13 19:16:00,
2013-07-13 14:21:00,81.7,66.9,29.98,North,5,7.0,11.0,61,0.00,,,0.00,WeatherCatV1.15B25,2013-07-13 19:21:00,
2013-07-13 14:26:00,81.8,66.5,29.99,NE,44,4.0,6.0,60,0.00,,,0.00,WeatherCatV1.15B25,2013-07-13 19:26:00,
2013-07-13 14:31:00,82.1,65.8,29.98,NE,44,3.0,7.0,58,0.00,,,0.00,WeatherCatV1.15B25,2013-07-13 19:31:00,
2013-07-13 14:36:00,82.2,65.9,29.98,NNE,25,4.0,9.0,58,0.00,,,0.00,WeatherCatV1.15B25,2013-07-13 19:36:00,
2013-07-13 14:41:00,82.0,66.7,29.98,NNW,343,3.0,7.0,60,0.00,,,0.00,WeatherCatV1.15B25,2013-07-13 19:41:00,
2013-07-13 14:46:00,82.2,67.4,29.98,North,355,3.0,7.0,61,0.00,,,0.00,WeatherCatV1.15B25,2013-07-13 19:46:00,
2013-07-13 14:51:00,82.2,65.9,29.98,NNE,13,2.0,7.0,58,0.00,,,0.00,WeatherCatV1.15B25,2013-07-13 19:51:00,
2013-07-13 14:56:00,82.4,67.1,29.97,North,0,3.0,5.0,60,0.00,,,0.00,WeatherCatV1.15B25,2013-07-13 19:56:00,
2013-07-13 15:01:00,82.7,66.4,29.97,North,10,3.0,5.0,58,0.00,,,0.00,WeatherCatV1.15B25,2013-07-13 20:01:00,
2013-07-13 15:06:00,83.1,65.2,29.97,NNE,32,4.0,10.0,55,0.00,,,0.00,WeatherCatV1.15B25,2013-07-13 20:06:00,
2013-07-13 15:11:00,83.1,64.7,29.97,NE,37,5.0,9.0,54,0.00,,,0.00,WeatherCatV1.15B25,2013-07-13 20:11:00,
2013-07-13 15:16:00,83.0,66.7,29.97,NE,39,5.0,5.0,58,0.00,,,0.00,WeatherCatV1.15B25,2013-07-13 20:16:00,
2013-07-13 15:21:00,83.3,64.4,29.97,NE,44,8.0,9.0,53,0.00,,,0.00,WeatherCatV1.15B25,2013-07-13 20:21:00,
2013-07-13 15:26:00,83.4,66.0,29.97,NE,43,4.0,4.0,56,0.00,,,0.00,WeatherCatV1.15B25,2013-07-13 20:26:00,
2013-07-13 15:31:00,83.6,66.7,29.97,NE,47,3.0,4.0,57,0.00,,,0.00,WeatherCatV1.15B25,2013-07-13 20:31:00,
2013-07-13 15:36:00,83.8,67.4,29.97,NE,42,6.0,11.0,58,0.00,,,0.00,WeatherCatV1.15B25,2013-07-13 20:36:00,
2013-07-13 15:41:00,83.6,65.7,29.97,NE,44,6.0,11.0,55,0.00,,,0.00,WeatherCatV1.15B25,2013-07-13 20:41:00,
2013-07-13 15:46:00,83.6,66.7,29.96,NE,34,6.0,9.0,57,0.00,,,0.00,WeatherCatV1.15B25,2013-07-13 20:46:00,
2013-07-13 15:51:00,83.7,66.8,29.96,NNE,28,6.0,8.0,57,0.00,,,0.00,WeatherCatV1.15B25,2013-07-13 20:51:00,
2013-07-13 15:56:00,83.8,67.9,29.96,NNE,24,3.0,6.0,59,0.00,,,0.00,WeatherCatV1.15B25,2013-07-13 20:56:00,
2013-07-13 16:01:00,84.0,67.1,29.96,NNE,19,6.0,7.0,57,0.00,,,0.00,WeatherCatV1.15B25,2013-07-13 21:01:00,
2013-07-13 16:06:00,83.8,64.3,29.96,NNE,13,7.0,9.0,52,0.00,,,0.00,WeatherCatV1.15B25,2013-07-13 21:06:00,
2013-07-13 16:11:00,83.5,64.0,29.95,NE,38,4.0,8.0,52,0.00,,,0.00,WeatherCatV1.15B25,2013-07-13 21:11:00,
2013-07-13 16:16:00,83.0,64.6,29.95,NE,40,6.0,6.0,54,0.00,,,0.00,WeatherCatV1.15B25,2013-07-13 21:16:00,
2013-07-13 16:21:00,82.7,65.4,29.95,NNW,346,3.0,4.0,56,0.00,,,0.00,WeatherCatV1.15B25,2013-07-13 21:21:00,
2013-07-13 16:26:00,82.4,63.5,29.95,NNW,348,5.0,6.0,53,0.00,,,0.00,WeatherCatV1.15B25,2013-07-13 21:26:00,
2013-07-13 16:31:00,82.3,65.0,29.95,East,88,5.0,7.0,56,0.00,,,0.00,WeatherCatV1.15B25,2013-07-13 21:31:00,
2013-07-13 16:36:00,82.5,64.7,29.95,East,84,6.0,7.0,55,0.00,,,0.00,WeatherCatV1.15B25,2013-07-13 21:36:00,
2013-07-13 16:41:00,82.3,64.5,29.95,NNE,16,5.0,9.0,55,0.00,,,0.00,WeatherCatV1.15B25,2013-07-13 21:41:00,
2013-07-13 16:46:00,82.2,65.4,29.95,NNE,26,3.0,5.0,57,0.00,,,0.00,WeatherCatV1.15B25,2013-07-13 21:46:00,
2013-07-13 16:51:00,82.7,65.9,29.95,North,9,5.0,6.0,57,0.00,,,0.00,WeatherCatV1.15B25,2013-07-13 21:51:00,
2013-07-13 16:56:00,83.3,65.9,29.95,NNE,20,5.0,6.0,56,0.00,,,0.00,WeatherCatV1.15B25,2013-07-13 21:56:00,
2013-07-13 17:01:00,83.8,65.9,29.95,NE,46,4.0,5.0,55,0.00,,,0.00,WeatherCatV1.15B25,2013-07-13 22:01:00,
2013-07-13 17:06:00,84.0,65.5,29.95,NE,34,6.0,9.0,54,0.00,,,0.00,WeatherCatV1.15B25,2013-07-13 22:06:00,
2013-07-13 17:11:00,83.8,65.9,29.95,NE,39,4.0,6.0,55,0.00,,,0.00,WeatherCatV1.15B25,2013-07-13 22:11:00,
2013-07-13 17:16:00,83.4,65.5,29.95,NE,39,4.0,9.0,55,0.00,,,0.00,WeatherCatV1.15B25,2013-07-13 22:16:00,
2013-07-13 17:21:00,83.1,65.7,29.95,NE,38,4.0,4.0,56,0.00,,,0.00,WeatherCatV1.15B25,2013-07-13 22:21:00,
2013-07-13 17:26:00,83.2,65.8,29.95,NNE,30,4.0,5.0,56,0.00,,,0.00,WeatherCatV1.15B25,2013-07-13 22:26:00,
2013-07-13 17:31:00,83.2,65.8,29.95,NE,42,3.0,5.0,56,0.00,,,0.00,WeatherCatV1.15B25,2013-07-13 22:31:00,
2013-07-13 17:36:00,83.3,66.4,29.95,NE,40,5.0,6.0,57,0.00,,,0.00,WeatherCatV1.15B25,2013-07-13 22:36:00,
2013-07-13 17:41:00,83.3,66.4,29.95,NNE,24,5.0,6.0,57,0.00,,,0.00,WeatherCatV1.15B25,2013-07-13 22:41:00,
2013-07-13 17:46:00,83.3,65.4,29.95,NNE,25,2.0,4.0,55,0.00,,,0.00,WeatherCatV1.15B25,2013-07-13 22:46:00,
2013-07-13 17:51:00,83.5,66.1,29.95,NE,35,1.0,4.0,56,0.00,,,0.00,WeatherCatV1.15B25,2013-07-13 22:51:00,
2013-07-13 17:56:00,83.6,65.2,29.95,NE,44,4.0,5.0,54,0.00,,,0.00,WeatherCatV1.15B25,2013-07-13 22:56:00,
2013-07-13 18:01:00,83.6,65.2,29.95,NE,39,2.0,4.0,54,0.00,,,0.00,WeatherCatV1.15B25,2013-07-13 23:01:00,
2013-07-13 18:06:00,83.5,65.1,29.94,ENE,68,1.0,7.0,54,0.00,,,0.00,WeatherCatV1.15B25,2013-07-13 23:06:00,
2013-07-13 18:11:00,83.0,66.2,29.95,NE,36,4.0,4.0,57,0.00,,,0.00,WeatherCatV1.15B25,2013-07-13 23:11:00,
2013-07-13 18:16:00,82.4,67.6,29.95,NNE,21,3.0,4.0,61,0.00,,,0.00,WeatherCatV1.15B25,2013-07-13 23:16:00,
2013-07-13 18:21:00,82.4,67.1,29.95,NNE,14,4.0,7.0,60,0.00,,,0.00,WeatherCatV1.15B25,2013-07-13 23:21:00,
2013-07-13 18:26:00,82.5,67.2,29.95,North,0,2.0,4.0,60,0.00,,,0.00,WeatherCatV1.15B25,2013-07-13 23:26:00,
2013-07-13 18:31:00,82.7,68.8,29.95,NNW,342,0.0,3.0,63,0.00,,,0.00,WeatherCatV1.15B25,2013-07-13 23:31:00,
2013-07-13 18:36:00,82.9,69.0,29.95,NNW,342,1.0,1.0,63,0.00,,,0.00,WeatherCatV1.15B25,2013-07-13 23:36:00,
2013-07-13 18:41:00,83.1,68.2,29.95,NNE,12,3.0,6.0,61,0.00,,,0.00,WeatherCatV1.15B25,2013-07-13 23:41:00,
2013-07-13 18:46:00,82.7,67.4,29.95,NNE,22,3.0,5.0,60,0.00,,,0.00,WeatherCatV1.15B25,2013-07-13 23:46:00,
2013-07-13 18:51:00,82.4,69.4,29.95,NNE,19,3.0,3.0,65,0.00,,,0.00,WeatherCatV1.15B25,2013-07-13 23:51:00,
2013-07-13 18:56:00,82.1,66.3,29.95,North,355,5.0,6.0,59,0.00,,,0.00,WeatherCatV1.15B25,2013-07-13 23:56:00,
2013-07-13 19:01:00,81.8,67.5,29.95,North,351,3.0,4.0,62,0.00,,,0.00,WeatherCatV1.15B25,2013-07-14 00:01:00,
2013-07-13 19:06:00,81.5,68.1,29.95,North,351,2.0,2.0,64,0.00,,,0.00,WeatherCatV1.15B25,2013-07-14 00:06:00,
2013-07-13 19:11:00,81.2,67.8,29.95,North,351,5.0,5.0,64,0.00,,,0.00,WeatherCatV1.15B25,2013-07-14 00:11:00,
2013-07-13 19:16:00,80.8,66.5,29.95,North,351,2.0,4.0,62,0.00,,,0.00,WeatherCatV1.15B25,2013-07-14 00:16:00,
2013-07-13 19:21:00,80.1,66.3,29.95,North,351,3.0,5.0,63,0.00,,,0.00,WeatherCatV1.15B25,2013-07-14 00:21:00,
2013-07-13 19:26:00,79.5,66.7,29.95,NNW,343,4.0,4.0,65,0.00,,,0.00,WeatherCatV1.15B25,2013-07-14 00:26:00,
2013-07-13 19:31:00,79.0,67.1,29.95,North,355,2.0,3.0,67,0.00,,,0.00,WeatherCatV1.15B25,2013-07-14 00:31:00,
2013-07-13 19:36:00,78.3,66.4,29.95,North,355,2.0,3.0,67,0.00,,,0.00,WeatherCatV1.15B25,2013-07-14 00:36:00,
2013-07-13 19:41:00,77.6,66.6,29.95,NE,47,2.0,2.0,69,0.00,,,0.00,WeatherCatV1.15B25,2013-07-14 00:41:00,
2013-07-13 19:46:00,76.9,66.3,29.95,NE,47,2.0,3.0,70,0.00,,,0.00,WeatherCatV1.15B25,2013-07-14 00:46:00,
2013-07-13 19:51:00,76.2,66.5,29.96,NE,47,3.0,3.0,72,0.00,,,0.00,WeatherCatV1.15B25,2013-07-14 00:51:00,
2013-07-13 19:56:00,75.7,66.4,29.96,NE,46,1.0,2.0,73,0.00,,,0.00,WeatherCatV1.15B25,2013-07-14 00:56:00,
2013-07-13 20:01:00,75.3,66.4,29.96,NNE,20,1.0,2.0,74,0.00,,,0.00,WeatherCatV1.15B25,2013-07-14 01:01:00,
2013-07-13 20:06:00,74.9,66.4,29.96,NNE,20,1.0,1.0,75,0.00,,,0.00,WeatherCatV1.15B25,2013-07-14 01:06:00,
2013-07-13 20:11:00,74.5,66.4,29.96,NNE,20,2.0,2.0,76,0.00,,,0.00,WeatherCatV1.15B25,2013-07-14 01:11:00,
2013-07-13 20:16:00,73.9,66.6,29.96,NNE,20,2.0,2.0,78,0.00,,,0.00,WeatherCatV1.15B25,2013-07-14 01:16:00,
2013-07-13 20:21:00,73.2,65.9,29.96,NNE,20,1.0,2.0,78,0.00,,,0.00,WeatherCatV1.15B25,2013-07-14 01:21:00,
2013-07-13 20:26:00,72.8,66.3,29.95,NNE,20,1.0,2.0,80,0.00,,,0.00,WeatherCatV1.15B25,2013-07-14 01:26:00,
2013-07-13 20:31:00,72.4,66.2,29.96,NNE,20,1.0,1.0,81,0.00,,,0.00,WeatherCatV1.15B25,2013-07-14 01:31:00,
2013-07-13 20:36:00,72.0,65.8,29.96,NNE,20,0.0,0.0,81,0.00,,,0.00,WeatherCatV1.15B25,2013-07-14 01:36:00,
2013-07-13 20:41:00,71.8,65.6,29.96,NNE,20,1.0,1.0,81,0.00,,,0.00,WeatherCatV1.15B25,2013-07-14 01:41:00,
2013-07-13 20:46:00,71.5,65.4,29.96,NNE,20,0.0,0.0,81,0.00,,,0.00,WeatherCatV1.15B25,2013-07-14 01:46:00,
2013-07-13 20:51:00,71.3,65.2,29.96,NNE,20,1.0,2.0,81,0.00,,,0.00,WeatherCatV1.15B25,2013-07-14 01:51:00,
2013-07-13 20:56:00,71.3,65.2,29.96,NNE,20,1.0,2.0,81,0.00,,,0.00,WeatherCatV1.15B25,2013-07-14 01:56:00,
2013-07-13 21:01:00,71.2,65.4,29.96,NNE,20,0.0,0.0,82,0.00,,,0.00,WeatherCatV1.15B25,2013-07-14 02:01:00,
2013-07-13 21:06:00,71.3,65.2,29.96,NNE,20,0.0,0.0,81,0.00,,,0.00,WeatherCatV1.15B25,2013-07-14 02:06:00,
2013-07-13 21:11:00,71.7,64.8,29.96,NNE,20,1.0,2.0,79,0.00,,,0.00,WeatherCatV1.15B25,2013-07-14 02:11:00,
2013-07-13 21:16:00,72.1,64.8,29.96,NNE,20,0.0,0.0,78,0.00,,,0.00,WeatherCatV1.15B25,2013-07-14 02:16:00,
2013-07-13 21:21:00,72.4,64.8,29.95,NNE,20,0.0,0.0,77,0.00,,,0.00,WeatherCatV1.15B25,2013-07-14 02:21:00,
2013-07-13 21:26:00,72.6,65.0,29.95,NNE,20,0.0,2.0,77,0.00,,,0.00,WeatherCatV1.15B25,2013-07-14 02:26:00,
2013-07-13 21:31:00,73.0,65.0,29.96,NNE,20,0.0,0.0,76,0.00,,,0.00,WeatherCatV1.15B25,2013-07-14 02:31:00,
2013-07-13 21:36:00,73.4,65.0,29.96,NNE,20,0.0,0.0,75,0.00,,,0.00,WeatherCatV1.15B25,2013-07-14 02:36:00,
2013-07-13 21:41:00,73.6,65.2,29.96,NNE,20,0.0,0.0,75,0.00,,,0.00,WeatherCatV1.15B25,2013-07-14 02:41:00,
2013-07-13 21:46:00,73.7,65.3,29.96,NNE,20,0.0,0.0,75,0.00,,,0.00,WeatherCatV1.15B25,2013-07-14 02:46:00,
2013-07-13 21:51:00,73.4,65.4,29.96,NNE,20,1.0,1.0,76,0.00,,,0.00,WeatherCatV1.15B25,2013-07-14 02:51:00,
2013-07-13 21:56:00,72.8,65.2,29.96,NNE,20,0.0,0.0,77,0.00,,,0.00,WeatherCatV1.15B25,2013-07-14 02:56:00,
2013-07-13 22:01:00,72.3,65.4,29.97,NNE,20,0.0,0.0,79,0.00,,,0.00,WeatherCatV1.15B25,2013-07-14 03:01:00,
2013-07-13 22:06:00,71.9,65.0,29.97,NNE,20,0.0,0.0,79,0.00,,,0.00,WeatherCatV1.15B25,2013-07-14 03:06:00,
2013-07-13 22:11:00,71.7,64.8,29.97,NNE,20,0.0,0.0,79,0.00,,,0.00,WeatherCatV1.15B25,2013-07-14 03:11:00,
2013-07-13 22:16:00,71.5,64.6,29.97,NNE,20,0.0,0.0,79,0.00,,,0.00,WeatherCatV1.15B25,2013-07-14 03:16:00,
2013-07-13 22:21:00,71.3,64.8,29.98,NNE,20,0.0,1.0,80,0.00,,,0.00,WeatherCatV1.15B25,2013-07-14 03:21:00,
2013-07-13 22:26:00,71.2,64.7,29.98,NNE,20,0.0,0.0,80,0.00,,,0.00,WeatherCatV1.15B25,2013-07-14 03:26:00,
2013-07-13 22:31:00,71.4,64.9,29.98,NNE,20,1.0,1.0,80,0.00,,,0.00,WeatherCatV1.15B25,2013-07-14 03:31:00,
2013-07-13 22:36:00,71.6,64.7,29.98,NNE,20,0.0,1.0,79,0.00,,,0.00,WeatherCatV1.15B25,2013-07-14 03:36:00,
2013-07-13 22:41:00,71.6,64.7,29.99,NNE,20,0.0,0.0,79,0.00,,,0.00,WeatherCatV1.15B25,2013-07-14 03:41:00,
2013-07-13 22:46:00,71.4,64.9,29.98,NNE,20,0.0,0.0,80,0.00,,,0.00,WeatherCatV1.15B25,2013-07-14 03:46:00,
2013-07-13 22:51:00,71.2,64.7,29.98,NNE,20,0.0,0.0,80,0.00,,,0.00,WeatherCatV1.15B25,2013-07-14 03:51:00,
2013-07-13 22:56:00,71.0,64.9,29.98,NNE,20,0.0,0.0,81,0.00,,,0.00,WeatherCatV1.15B25,2013-07-14 03:56:00,
2013-07-13 23:01:00,70.9,64.4,29.98,NNE,20,0.0,1.0,80,0.00,,,0.00,WeatherCatV1.15B25,2013-07-14 04:01:00,
2013-07-13 23:06:00,71.0,64.5,29.98,NNE,20,2.0,2.0,80,0.00,,,0.00,WeatherCatV1.15B25,2013-07-14 04:06:00,
2013-07-13 23:11:00,71.5,65.0,29.98,NNE,20,1.0,2.0,80,0.00,,,0.00,WeatherCatV1.15B25,2013-07-14 04:11:00,
2013-07-13 23:16:00,72.0,65.1,29.98,NNE,20,1.0,1.0,79,0.00,,,0.00,WeatherCatV1.15B25,2013-07-14 04:16:00,
2013-07-13 23:21:00,72.4,65.1,29.98,NNE,20,1.0,1.0,78,0.00,,,0.00,WeatherCatV1.15B25,2013-07-14 04:21:00,
2013-07-13 23:26:00,72.7,65.4,29.98,NNE,20,0.0,2.0,78,0.00,,,0.00,WeatherCatV1.15B25,2013-07-14 04:26:00,
2013-07-13 23:31:00,72.7,65.4,29.98,ENE,70,1.0,3.0,78,0.00,,,0.00,WeatherCatV1.15B25,2013-07-14 04:31:00,
2013-07-13 23:36:00,72.7,65.4,29.98,ENE,70,0.0,2.0,78,0.00,,,0.00,WeatherCatV1.15B25,2013-07-14 04:36:00,
2013-07-13 23:41:00,72.4,65.5,29.98,ENE,70,2.0,3.0,79,0.00,,,0.00,WeatherCatV1.15B25,2013-07-14 04:41:00,
2013-07-13 23:46:00,71.9,65.4,29.99,ENE,70,0.0,2.0,80,0.00,,,0.00,WeatherCatV1.15B25,2013-07-14 04:46:00,
2013-07-13 23:51:00,71.5,65.0,29.98,ENE,70,1.0,2.0,80,0.00,,,0.00,WeatherCatV1.15B25,2013-07-14 04:51:00,
2013-07-13 23:56:00,71.4,65.3,29.98,ENE,70,1.0,2.0,81,0.00,,,0.00,WeatherCatV1.15B25,2013-07-14 04:56:00,